Time;durP1;ratioP1;P1;durP2;ratioP2;P2;SDS_P1;SDS_P2;PMS_P1;PMS_P2;Temp;Humidity;BMP_temperature;BMP_pressure;BME280_temperature;BME280_humidity;BME280_pressure;Samples;Min_cycle;Max_cycle;Signal;HPM_P1;HPM_P2
2022/10/27 00:00:48;;;;;;;4.65;1.50;;;;;;;20.65;36.52;101429.03;4976032;28;20034;-56
2022/10/27 00:03:16;;;;;;;5.13;1.00;;;;;;;20.44;36.11;101422.59;4993658;28;20105;-57
2022/10/27 00:05:44;;;;;;;5.95;1.92;;;;;;;20.54;36.17;101436.31;4993527;28;20027;-56
2022/10/27 00:08:15;;;;;;;4.93;1.50;;;;;;;20.47;36.75;101430.25;4993544;28;20030;-57
2022/10/27 00:10:43;;;;;;;4.93;1.45;;;;;;;20.36;36.93;101424.94;4993338;28;20036;-56
2022/10/27 00:13:11;;;;;;;5.28;1.42;;;;;;;20.39;36.78;101421.72;4993139;28;20035;-56
2022/10/27 00:15:37;;;;;;;3.97;1.70;;;;;;;20.46;36.50;101422.34;4993563;28;20026;-57
2022/10/27 00:18:08;;;;;;;6.60;1.73;;;;;;;20.25;37.00;101421.31;4993794;28;20014;-56
2022/10/27 00:20:34;;;;;;;5.35;1.58;;;;;;;20.26;36.95;101421.03;4993371;28;20441;-57
2022/10/27 00:23:01;;;;;;;3.17;1.20;;;;;;;20.16;36.93;101426.38;4993198;28;20030;-57
2022/10/27 00:25:27;;;;;;;4.85;1.30;;;;;;;20.06;37.13;101429.00;4993252;28;20045;-57
2022/10/27 00:27:53;;;;;;;7.78;1.85;;;;;;;20.09;37.10;101427.66;4976483;28;20031;-56
2022/10/27 00:30:19;;;;;;;5.32;1.48;;;;;;;19.86;37.60;101426.03;4992843;28;20321;-57
2022/10/27 00:32:46;;;;;;;4.55;1.65;;;;;;;19.85;37.83;101427.09;4992796;28;20482;-57
2022/10/27 00:35:12;;;;;;;4.93;1.40;;;;;;;19.66;38.25;101430.16;5001467;28;20085;-57
2022/10/27 00:37:38;;;;;;;6.07;1.70;;;;;;;19.61;38.70;101440.13;5007455;28;20104;-57
2022/10/27 00:40:05;;;;;;;3.90;1.17;;;;;;;19.49;36.32;101432.88;5012341;28;20030;-57
2022/10/27 00:42:31;;;;;;;7.47;1.58;;;;;;;19.53;34.84;101433.19;5022911;28;20576;-56
2022/10/27 00:44:57;;;;;;;4.63;1.02;;;;;;;19.16;35.60;101430.25;5022530;28;20025;-53
2022/10/27 00:47:33;;;;;;;9.35;1.65;;;;;;;19.13;35.84;101433.44;5012276;28;20041;-54
2022/10/27 00:50:12;;;;;;;4.18;1.30;;;;;;;18.88;36.66;101429.28;5012576;28;20025;-57
2022/10/27 00:52:55;;;;;;;4.07;1.33;;;;;;;18.67;36.39;101436.25;5011854;28;20116;-57
2022/10/27 00:55:26;;;;;;;3.47;1.60;;;;;;;18.61;36.79;101431.78;4991999;28;20053;-48
2022/10/27 00:57:56;;;;;;;5.50;1.45;;;;;;;18.36;37.73;101429.41;4998129;28;20033;-52
2022/10/27 01:00:23;;;;;;;2.95;1.02;;;;;;;18.28;38.00;101432.53;4999466;28;20019;-52
2022/10/27 01:02:50;;;;;;;4.40;1.52;;;;;;;18.23;37.83;101437.84;5008502;28;20066;-50
2022/10/27 01:05:22;;;;;;;5.65;1.50;;;;;;;18.10;37.79;101438.97;5003845;28;20036;-52
2022/10/27 01:07:51;;;;;;;4.10;1.27;;;;;;;17.98;38.99;101435.47;4993278;28;20022;-49
2022/10/27 01:10:17;;;;;;;8.05;1.48;;;;;;;17.99;38.59;101442.56;5011993;28;20030;-51
2022/10/27 01:12:45;;;;;;;6.97;1.60;;;;;;;17.90;39.60;101435.84;5012604;28;20566;-51
2022/10/27 01:15:13;;;;;;;4.85;1.60;;;;;;;17.71;39.55;101443.28;5012426;28;20060;-50
2022/10/27 01:17:54;;;;;;;6.80;1.42;;;;;;;17.84;39.33;101451.19;5008603;28;20057;-51
2022/10/27 01:20:38;;;;;;;6.00;1.73;;;;;;;17.72;40.43;101455.81;5002282;28;20502;-55
2022/10/27 01:23:13;;;;;;;7.35;1.48;;;;;;;17.63;40.02;101449.88;5009701;28;20073;-55
2022/10/27 01:25:57;;;;;;;;;;;;;;;17.47;40.81;101450.63;4995773;28;20030;-55
2022/10/27 01:29:10;;;;;;;4.53;1.35;;;;;;;17.47;41.39;101447.91;5012080;28;19917;-55
2022/10/27 01:32:12;;;;;;;10.10;2.47;;;;;;;17.30;41.39;101449.69;4992837;28;20049;-56
2022/10/27 01:34:49;;;;;;;5.63;1.60;;;;;;;17.12;41.92;101456.84;4992181;28;20089;-56
2022/10/27 01:37:20;;;;;;;5.13;1.25;;;;;;;17.23;41.99;101465.22;4992872;28;20394;-55
2022/10/27 01:40:01;;;;;;;6.78;1.80;;;;;;;16.88;42.55;101466.84;5003651;28;20029;-56
2022/10/27 01:42:50;;;;;;;6.43;1.88;;;;;;;16.91;42.68;101465.53;5028003;28;20075;-55
2022/10/27 01:45:26;;;;;;;7.50;2.10;;;;;;;16.64;43.38;101467.78;5031636;28;20034;-55
2022/10/27 01:47:55;;;;;;;6.13;1.73;;;;;;;16.56;44.12;101460.03;5029973;28;20022;-55
2022/10/27 01:50:32;;;;;;;9.00;2.35;;;;;;;16.57;44.07;101461.66;5011294;28;20030;-55
2022/10/27 01:52:58;;;;;;;7.82;2.10;;;;;;;16.44;44.36;101461.88;5010687;28;20030;-54
2022/10/27 01:55:53;;;;;;;7.90;2.05;;;;;;;16.40;44.64;101464.19;5011487;28;20108;-55
2022/10/27 01:58:31;;;;;;;5.37;2.03;;;;;;;16.13;45.11;101466.44;5025008;28;20470;-55
2022/10/27 02:01:32;;;;;;;7.32;2.05;;;;;;;16.13;45.21;101466.44;5030864;28;20478;-55
2022/10/27 02:04:21;;;;;;;8.68;1.95;;;;;;;16.01;45.67;101466.38;4955663;28;20053;-54
2022/10/27 02:06:59;;;;;;;10.20;2.30;;;;;;;15.97;45.78;101478.66;4992251;28;20034;-56
2022/10/27 02:10:04;;;;;;;12.23;2.50;;;;;;;16.00;46.30;101467.44;4997955;28;20038;-55
2022/10/27 02:12:35;;;;;;;8.18;2.20;;;;;;;15.84;46.21;101470.72;5001520;28;20034;-55
2022/10/27 02:15:05;;;;;;;8.02;1.67;;;;;;;15.79;46.44;101470.59;4991563;28;20454;-53
2022/10/27 02:17:37;;;;;;;8.88;2.22;;;;;;;15.73;46.40;101472.31;4991721;28;20054;-53
2022/10/27 02:20:09;;;;;;;7.75;2.50;;;;;;;15.84;46.65;101481.53;4991860;28;20038;-52
2022/10/27 02:22:37;;;;;;;11.27;2.38;;;;;;;15.74;46.64;101476.66;5007034;28;20034;-54
2022/10/27 02:25:04;;;;;;;6.53;2.20;;;;;;;15.69;46.72;101476.50;5011458;28;20105;-55
2022/10/27 02:27:40;;;;;;;10.07;2.15;;;;;;;15.57;47.05;101481.78;5009266;28;20045;-55
2022/10/27 02:30:07;;;;;;;12.07;2.55;;;;;;;15.58;47.02;101479.91;4993808;28;20030;-56
2022/10/27 02:32:34;;;;;;;6.53;2.20;;;;;;;15.49;47.44;101476.69;4993145;28;20390;-56
2022/10/27 02:35:01;;;;;;;7.25;2.00;;;;;;;15.54;47.39;101484.91;5002000;28;20029;-56
2022/10/27 02:37:35;;;;;;;9.80;2.58;;;;;;;15.44;48.24;101484.63;4995612;28;20018;-56
2022/10/27 02:40:01;;;;;;;7.15;2.20;;;;;;;15.47;47.98;101489.56;4995191;28;20069;-55
2022/10/27 02:42:27;;;;;;;5.95;2.47;;;;;;;15.48;47.96;101488.50;5009801;28;20042;-56
2022/10/27 02:44:53;;;;;;;10.50;2.28;;;;;;;15.42;47.79;101484.00;5014892;28;20021;-56
2022/10/27 02:47:20;;;;;;;9.55;3.15;;;;;;;15.35;47.97;101488.63;5014842;28;20057;-56
2022/10/27 02:49:46;;;;;;;7.07;2.60;;;;;;;15.16;48.05;101490.47;5014797;28;20084;-56
2022/10/27 02:52:13;;;;;;;7.03;2.80;;;;;;;15.20;48.12;101488.16;5000289;28;20100;-56
2022/10/27 02:54:41;;;;;;;7.00;2.08;;;;;;;14.87;48.81;101491.09;5014056;28;20064;-56
2022/10/27 02:57:07;;;;;;;7.20;2.30;;;;;;;14.55;49.75;101488.44;5014698;28;20378;-56
2022/10/27 02:59:34;;;;;;;7.40;2.78;;;;;;;13.91;51.43;101495.50;4996827;28;20064;-57
2022/10/27 03:02:00;;;;;;;8.25;3.20;;;;;;;14.13;50.69;101487.97;4996727;28;20033;-57
2022/10/27 03:04:26;;;;;;;4.82;2.35;;;;;;;13.63;52.09;101476.97;4994448;28;20026;-55
2022/10/27 03:06:52;;;;;;;10.90;2.90;;;;;;;13.50;52.50;101487.75;5013609;28;20120;-56
2022/10/27 03:09:18;;;;;;;6.68;3.10;;;;;;;13.02;54.01;101490.63;5014627;28;20026;-56
2022/10/27 03:11:44;;;;;;;6.88;3.10;;;;;;;12.91;54.28;101489.38;5013693;28;20352;-55
2022/10/27 03:14:11;;;;;;;7.82;2.80;;;;;;;13.27;53.14;101490.88;5014144;28;20044;-55
2022/10/27 03:16:37;;;;;;;13.13;3.13;;;;;;;13.39;52.59;101493.78;5014143;28;20077;-56
2022/10/27 03:19:03;;;;;;;6.63;2.70;;;;;;;13.55;52.37;101484.41;5013801;28;20237;-56
2022/10/27 03:21:29;;;;;;;10.95;2.83;;;;;;;13.48;52.44;101492.50;5014220;28;20029;-56
2022/10/27 03:23:55;;;;;;;8.23;2.53;;;;;;;13.31;53.02;101489.41;5028452;28;20033;-56
2022/10/27 03:26:22;;;;;;;9.80;2.97;;;;;;;13.29;52.92;101488.00;5033843;28;20482;-57
2022/10/27 03:28:48;;;;;;;10.00;3.00;;;;;;;12.81;53.96;101497.03;5004625;28;20383;-56
2022/10/27 03:31:14;;;;;;;8.70;2.80;;;;;;;12.55;55.25;101488.94;4994192;28;20047;-56
2022/10/27 03:33:40;;;;;;;8.50;2.65;;;;;;;12.63;54.84;101491.41;4994359;28;20127;-56
2022/10/27 03:36:07;;;;;;;11.55;4.03;;;;;;;12.28;55.80;101494.22;5012030;28;20127;-56
2022/10/27 03:38:33;;;;;;;9.35;3.45;;;;;;;12.09;56.42;101489.59;5002368;23;20058;-55
2022/10/27 03:40:59;;;;;;;10.65;3.17;;;;;;;11.96;56.93;101494.91;4990900;28;20034;-56
2022/10/27 03:43:25;;;;;;;9.52;3.00;;;;;;;11.99;56.73;101500.69;4992436;28;20042;-54
2022/10/27 03:45:52;;;;;;;10.32;2.85;;;;;;;12.48;55.46;101496.13;4994287;28;20026;-55
2022/10/27 03:48:18;;;;;;;9.50;2.40;;;;;;;12.37;55.22;101503.72;4993203;28;20037;-56
2022/10/27 03:50:50;;;;;;;10.82;2.42;;;;;;;11.86;56.33;101504.13;4993900;28;20037;-55
2022/10/27 03:53:17;;;;;;;6.70;2.40;;;;;;;11.99;56.04;101505.22;4993019;28;20034;-55
2022/10/27 03:55:43;;;;;;;8.68;2.30;;;;;;;12.31;55.20;101503.72;4994210;28;20598;-56
2022/10/27 03:58:12;;;;;;;10.18;2.70;;;;;;;12.14;55.46;101509.44;4993311;28;20403;-56
2022/10/27 04:00:39;;;;;;;6.60;1.95;;;;;;;12.24;55.24;101516.28;4993702;28;20058;-55
2022/10/27 04:03:05;;;;;;;7.45;2.20;;;;;;;12.30;55.01;101505.56;4991263;28;20518;-56
2022/10/27 04:05:32;;;;;;;11.02;2.20;;;;;;;12.28;55.14;101504.97;4994010;28;20112;-56
2022/10/27 04:07:59;;;;;;;7.57;2.35;;;;;;;12.43;54.36;101497.56;4979043;28;20448;-55
2022/10/27 04:10:25;;;;;;;11.27;2.40;;;;;;;12.07;55.17;101508.59;4991594;28;20038;-56
2022/10/27 04:12:54;;;;;;;6.05;2.40;;;;;;;11.74;56.26;101503.00;4993432;28;20150;-56
2022/10/27 04:15:21;;;;;;;12.25;2.63;;;;;;;11.50;57.05;101504.31;4991781;28;20026;-56
2022/10/27 04:17:51;;;;;;;11.70;2.35;;;;;;;11.49;57.12;101505.34;4992480;28;20035;-56
2022/10/27 04:20:17;;;;;;;10.48;2.15;;;;;;;11.48;56.54;101510.88;4993359;28;20034;-56
2022/10/27 04:22:43;;;;;;;11.82;2.40;;;;;;;11.14;57.49;101515.16;4993406;28;20101;-55
2022/10/27 04:25:10;;;;;;;6.57;2.10;;;;;;;11.25;57.69;101517.31;4991647;28;20030;-56
2022/10/27 04:27:36;;;;;;;5.78;2.28;;;;;;;11.50;56.71;101512.34;4991974;28;20038;-56
2022/10/27 04:30:03;;;;;;;7.88;2.63;;;;;;;11.64;56.30;101518.63;4993059;28;20490;-55
2022/10/27 04:32:29;;;;;;;7.60;2.95;;;;;;;11.80;55.94;101521.00;4991410;28;20030;-56
2022/10/27 04:34:55;;;;;;;4.63;1.60;;;;;;;11.86;55.64;101522.91;5001221;28;20025;-55
2022/10/27 04:37:21;;;;;;;7.95;2.03;;;;;;;11.91;55.58;101516.97;5010772;28;20050;-56
2022/10/27 04:39:47;;;;;;;7.32;2.40;;;;;;;11.99;55.21;101524.00;5012813;28;20029;-56
2022/10/27 04:42:14;;;;;;;3.92;1.80;;;;;;;11.81;55.45;101520.00;5010943;28;20038;-56
2022/10/27 04:44:40;;;;;;;9.30;2.10;;;;;;;11.62;55.69;101529.56;5012425;28;20060;-56
2022/10/27 04:47:06;;;;;;;6.63;1.85;;;;;;;11.43;56.41;101532.06;5011481;28;20447;-56
2022/10/27 04:49:32;;;;;;;8.77;2.20;;;;;;;11.21;57.06;101528.59;5012915;28;20034;-55
2022/10/27 04:51:58;;;;;;;10.27;2.58;;;;;;;10.84;57.90;101538.56;5010532;28;20371;-56
2022/10/27 04:54:24;;;;;;;6.43;2.08;;;;;;;10.89;57.89;101541.50;5012423;28;20065;-56
2022/10/27 04:56:51;;;;;;;7.60;2.38;;;;;;;10.80;58.21;101548.00;5010928;28;20026;-54
2022/10/27 04:59:17;;;;;;;5.88;2.30;;;;;;;10.90;57.86;101545.03;5012504;28;20050;-56
2022/10/27 05:01:43;;;;;;;8.27;2.22;;;;;;;10.75;58.33;101547.75;4993644;28;20403;-56
2022/10/27 05:04:09;;;;;;;8.30;2.10;;;;;;;10.86;58.17;101557.13;5012285;28;20060;-55
2022/10/27 05:06:35;;;;;;;7.45;2.47;;;;;;;11.08;57.40;101556.94;5010555;28;20030;-55
2022/10/27 05:09:01;;;;;;;4.53;1.65;;;;;;;11.04;57.35;101554.81;5012582;28;20560;-55
2022/10/27 05:11:27;;;;;;;15.23;5.40;;;;;;;11.16;57.09;101558.69;5010516;28;20073;-55
2022/10/27 05:13:54;;;;;;;9.65;2.63;;;;;;;11.23;56.66;101548.00;5012289;28;20534;-56
2022/10/27 05:16:20;;;;;;;5.68;2.00;;;;;;;10.65;58.19;101564.09;5010046;28;20394;-56
2022/10/27 05:18:46;;;;;;;7.45;2.03;;;;;;;10.68;58.17;101560.25;5012194;28;20034;-56
2022/10/27 05:21:12;;;;;;;9.63;5.38;;;;;;;10.86;57.67;101560.63;5010753;28;20028;-56
2022/10/27 05:23:38;;;;;;;15.13;9.70;;;;;;;11.07;56.75;101565.19;5012107;28;20028;-56
2022/10/27 05:26:05;;;;;;;15.50;9.25;;;;;;;10.83;57.59;101559.19;5010122;28;20029;-56
2022/10/27 05:28:31;;;;;;;18.63;13.30;;;;;;;10.94;57.08;101568.56;5011877;28;20305;-56
2022/10/27 05:30:59;;;;;;;14.93;7.30;;;;;;;10.96;57.09;101565.69;5010116;28;20032;-56
2022/10/27 05:33:26;;;;;;;8.68;3.15;;;;;;;11.15;56.70;101564.19;5011794;28;20448;-56
2022/10/27 05:35:52;;;;;;;6.40;1.88;;;;;;;11.39;55.88;101565.69;5016685;23;20022;-57
2022/10/27 05:38:19;;;;;;;4.45;1.95;;;;;;;11.34;55.72;101571.59;5010595;28;20069;-55
2022/10/27 05:40:45;;;;;;;6.60;2.00;;;;;;;11.35;55.75;101563.38;5010492;28;20033;-55
2022/10/27 05:43:11;;;;;;;7.05;1.73;;;;;;;11.28;55.60;101567.84;5011876;28;20521;-56
2022/10/27 05:45:38;;;;;;;7.15;1.85;;;;;;;11.47;54.94;101570.88;5005907;28;20105;-56
2022/10/27 05:48:06;;;;;;;6.78;1.90;;;;;;;10.91;56.71;101570.78;5008694;28;20048;-56
2022/10/27 05:50:33;;;;;;;5.25;1.45;;;;;;;10.76;57.02;101566.28;5011562;28;20025;-56
2022/10/27 05:52:59;;;;;;;6.35;1.90;;;;;;;11.14;56.25;101554.50;5010209;28;20415;-56
2022/10/27 05:55:26;;;;;;;5.22;1.55;;;;;;;10.99;56.23;101562.59;5011450;28;20406;-56
2022/10/27 05:57:57;;;;;;;4.25;1.35;;;;;;;11.37;55.29;101569.34;5010432;28;20045;-56
2022/10/27 06:00:25;;;;;;;6.97;2.00;;;;;;;11.16;55.72;101565.84;5011276;28;20049;-56
2022/10/27 06:02:55;;;;;;;7.38;2.08;;;;;;;11.13;55.84;101576.97;5009283;28;20108;-56
2022/10/27 06:05:21;;;;;;;5.00;1.92;;;;;;;10.94;56.43;101576.59;5013618;28;20034;-56
2022/10/27 06:07:47;;;;;;;5.20;1.83;;;;;;;11.10;55.96;101578.16;5013896;28;20076;-56
2022/10/27 06:10:14;;;;;;;7.60;1.70;;;;;;;10.55;57.52;101577.81;5014411;28;20029;-56
2022/10/27 06:12:40;;;;;;;5.57;1.67;;;;;;;10.47;57.93;101579.75;5014209;28;20394;-56
2022/10/27 06:15:06;;;;;;;5.30;1.52;;;;;;;10.64;57.66;101570.47;4995930;28;20022;-57
2022/10/27 06:17:33;;;;;;;4.63;1.67;;;;;;;10.91;56.83;101568.09;4998520;28;20471;-56
2022/10/27 06:19:59;;;;;;;3.80;1.80;;;;;;;10.89;56.89;101567.47;5015037;28;20045;-56
2022/10/27 06:22:25;;;;;;;4.63;1.60;;;;;;;10.99;56.68;101566.16;5014362;28;20108;-56
2022/10/27 06:24:52;;;;;;;4.13;1.70;;;;;;;10.99;56.53;101563.47;5015378;28;20033;-56
2022/10/27 06:27:18;;;;;;;10.75;2.05;;;;;;;11.00;56.36;101558.94;5013541;28;20036;-56
2022/10/27 06:29:44;;;;;;;5.43;1.75;;;;;;;10.93;56.67;101569.56;4997230;28;20449;-56
2022/10/27 06:32:10;;;;;;;3.72;1.65;;;;;;;10.94;56.53;101568.56;5015471;28;20021;-56
2022/10/27 06:34:36;;;;;;;6.43;2.05;;;;;;;10.77;56.74;101576.00;5034776;28;20029;-56
2022/10/27 06:37:04;;;;;;;3.90;1.42;;;;;;;10.86;56.55;101573.19;5031713;28;20041;-56
2022/10/27 06:39:31;;;;;;;4.05;1.77;;;;;;;10.79;56.62;101568.59;5034702;28;20047;-56
2022/10/27 06:41:57;;;;;;;7.70;1.88;;;;;;;11.06;55.95;101574.25;5033293;28;20038;-56
2022/10/27 06:44:24;;;;;;;8.02;1.70;;;;;;;11.05;55.61;101581.44;5034808;28;20105;-56
2022/10/27 06:46:51;;;;;;;7.50;1.92;;;;;;;10.99;55.59;101581.34;5029789;28;20017;-56
2022/10/27 06:49:17;;;;;;;4.70;1.77;;;;;;;10.96;55.87;101581.75;5034189;28;20036;-56
2022/10/27 06:51:43;;;;;;;5.50;1.55;;;;;;;11.02;55.89;101579.13;5032858;28;20025;-56
2022/10/27 06:54:09;;;;;;;5.65;1.77;;;;;;;10.92;55.95;101583.97;5034785;28;20033;-56
2022/10/27 06:56:35;;;;;;;8.75;2.08;;;;;;;10.95;55.75;101585.47;5032784;28;20033;-56
2022/10/27 06:59:02;;;;;;;3.38;1.38;;;;;;;10.91;55.86;101590.34;5034564;28;20022;-56
2022/10/27 07:01:30;;;;;;;3.67;1.52;;;;;;;10.79;56.24;101579.31;5029867;28;20033;-56
2022/10/27 07:03:57;;;;;;;4.68;1.52;;;;;;;10.66;56.32;101597.91;5034606;28;20079;-57
2022/10/27 07:06:23;;;;;;;5.50;1.65;;;;;;;10.36;57.22;101586.41;5032965;28;20021;-56
2022/10/27 07:08:51;;;;;;;5.85;1.60;;;;;;;10.57;56.70;101586.47;5034442;28;20470;-55
2022/10/27 07:11:18;;;;;;;3.30;1.40;;;;;;;10.27;57.49;101577.66;5032621;28;20466;-56
2022/10/27 07:13:44;;;;;;;8.98;1.63;;;;;;;10.56;56.70;101575.97;5034192;28;20030;-56
2022/10/27 07:16:10;;;;;;;9.02;1.95;;;;;;;10.05;58.38;101581.25;5032579;28;20026;-56
2022/10/27 07:18:37;;;;;;;6.28;2.00;;;;;;;9.77;59.52;101576.53;5034184;28;20022;-56
2022/10/27 07:21:04;;;;;;;6.35;1.90;;;;;;;9.82;59.39;101581.28;5031868;28;20033;-56
2022/10/27 07:23:31;;;;;;;6.25;1.75;;;;;;;9.49;60.49;101578.97;5034049;28;20144;-56
2022/10/27 07:25:57;;;;;;;5.50;1.80;;;;;;;9.06;61.87;101580.47;5032992;28;20032;-56
2022/10/27 07:28:23;;;;;;;6.93;2.65;;;;;;;9.20;61.72;101576.19;5034227;28;20025;-55
2022/10/27 07:30:54;;;;;;;8.82;2.65;;;;;;;9.05;62.09;101567.28;5031590;28;20569;-56
2022/10/27 07:33:20;;;;;;;8.30;2.85;;;;;;;8.96;62.58;101564.69;5032906;28;20087;-56
2022/10/27 07:35:51;;;;;;;8.38;2.60;;;;;;;9.03;62.46;101562.13;5031638;28;20452;-56
2022/10/27 07:38:19;;;;;;;8.52;2.65;;;;;;;8.86;62.96;101571.25;5013860;28;20038;-56
2022/10/27 07:40:45;;;;;;;6.22;2.00;;;;;;;8.63;63.50;101550.72;5015697;28;20032;-55
2022/10/27 07:43:12;;;;;;;7.20;2.20;;;;;;;8.67;63.53;101546.69;5032062;28;20033;-56
2022/10/27 07:45:41;;;;;;;5.10;1.70;;;;;;;8.98;62.77;101548.47;5031657;28;20049;-56
2022/10/27 07:48:11;;;;;;;10.73;2.08;;;;;;;8.82;63.06;101543.25;5032740;28;20086;-56
2022/10/27 07:50:38;;;;;;;6.97;1.90;;;;;;;8.57;64.15;101547.91;5031807;28;20463;-56
2022/10/27 07:53:04;;;;;;;3.90;1.60;;;;;;;8.81;63.26;101549.59;5033546;28;20040;-54
2022/10/27 07:55:33;;;;;;;7.68;1.98;;;;;;;8.81;63.11;101550.44;5033186;28;20022;-56
2022/10/27 07:58:01;;;;;;;5.80;1.50;;;;;;;8.60;63.76;101547.53;5033271;28;20036;-56
2022/10/27 08:00:28;;;;;;;4.22;1.80;;;;;;;8.45;64.49;101550.16;5031451;28;20033;-56
2022/10/27 08:02:57;;;;;;;6.78;2.13;;;;;;;8.40;64.76;101557.84;5033454;28;20040;-55
2022/10/27 08:05:24;;;;;;;8.70;2.05;;;;;;;8.28;65.78;101556.53;5031933;28;20440;-56
2022/10/27 08:07:50;;;;;;;8.43;2.00;;;;;;;8.33;66.01;101547.00;5033057;28;20025;-56
2022/10/27 08:10:16;;;;;;;5.25;1.70;;;;;;;8.27;66.45;101536.19;5030838;28;20025;-56
2022/10/27 08:12:44;;;;;;;9.25;1.98;;;;;;;8.50;65.56;101530.97;5032893;28;20030;-56
2022/10/27 08:15:11;;;;;;;10.98;2.10;;;;;;;8.51;65.42;101530.78;5031393;28;20076;-55
2022/10/27 08:17:38;;;;;;;7.95;2.33;;;;;;;8.51;65.14;101535.28;5032978;28;20044;-56
2022/10/27 08:20:07;;;;;;;8.15;1.55;;;;;;;8.43;65.77;101541.47;5031318;28;20022;-56
2022/10/27 08:22:33;;;;;;;9.20;2.22;;;;;;;8.29;66.21;101539.53;5031563;28;20087;-56
2022/10/27 08:24:59;;;;;;;9.18;1.75;;;;;;;8.50;65.79;101537.13;5029581;28;20041;-56
2022/10/27 08:27:25;;;;;;;7.82;1.92;;;;;;;8.57;65.29;101537.25;5031709;28;20029;-56
2022/10/27 08:29:51;;;;;;;5.97;1.58;;;;;;;8.57;65.25;101529.25;5032066;28;20480;-56
2022/10/27 08:32:18;;;;;;;6.32;2.13;;;;;;;8.50;65.81;101531.78;5032803;28;20432;-56
2022/10/27 08:34:44;;;;;;;8.98;1.70;;;;;;;8.51;65.61;101543.28;5032427;28;20155;-56
2022/10/27 08:37:10;;;;;;;4.40;1.75;;;;;;;8.59;65.39;101546.72;5032515;28;20120;-56
2022/10/27 08:39:36;;;;;;;7.60;1.98;;;;;;;8.45;65.61;101548.31;5032212;28;20022;-56
2022/10/27 08:42:40;;;;;;;4.85;1.90;;;;;;;8.30;66.08;101554.50;5031903;28;20538;-56
2022/10/27 08:45:17;;;;;;;9.27;2.00;;;;;;;8.21;66.62;101553.72;5012481;28;20096;-56
2022/10/27 08:47:44;;;;;;;6.88;1.92;;;;;;;8.09;66.92;101553.25;5014419;28;20368;-56
2022/10/27 08:50:23;;;;;;;6.78;2.13;;;;;;;7.94;67.45;101553.16;5020157;28;20033;-56
2022/10/27 08:52:55;;;;;;;6.18;2.10;;;;;;;7.91;67.86;101555.31;5030531;28;20426;-56
2022/10/27 08:55:27;;;;;;;5.10;1.45;;;;;;;7.94;67.44;101555.81;5012292;28;20145;-56
2022/10/27 08:58:07;;;;;;;7.68;1.95;;;;;;;7.83;67.63;101556.19;5020472;28;20031;-56
2022/10/27 09:00:59;;;;;;;6.55;2.40;;;;;;;7.87;67.72;101560.16;5031762;28;20037;-56
2022/10/27 09:03:31;;;;;;;6.13;1.85;;;;;;;7.99;67.51;101559.78;5032007;28;20021;-56
2022/10/27 09:06:18;;;;;;;4.93;1.90;;;;;;;8.01;67.28;101565.81;5031676;28;20470;-56
2022/10/27 09:09:12;;;;;;;7.93;2.10;;;;;;;7.80;68.20;101569.84;5031677;28;20108;-56
2022/10/27 09:11:38;;;;;;;6.45;1.92;;;;;;;7.88;67.82;101560.97;5031463;28;20022;-56
2022/10/27 09:14:26;;;;;;;5.72;1.83;;;;;;;7.90;67.78;101564.31;5026001;28;20128;-56
2022/10/27 09:17:09;;;;;;;5.63;1.70;;;;;;;8.07;67.24;101562.44;5031293;28;20386;-56
2022/10/27 09:19:43;;;;;;;6.57;1.77;;;;;;;8.10;66.90;101562.09;5025295;28;20537;-56
2022/10/27 09:22:16;;;;;;;5.18;2.08;;;;;;;8.29;66.72;101558.19;5011693;28;20026;-57
2022/10/27 09:27:14;;;;;;;6.45;2.03;;;;;;;8.15;67.09;101557.91;4980174;28;20057;-56
2022/10/27 09:29:41;;;;;;;10.70;2.10;;;;;;;8.11;66.93;101556.59;4992208;28;20374;-56
2022/10/27 09:32:23;;;;;;;8.00;2.00;;;;;;;7.83;67.96;101556.19;4987178;28;20382;-56
2022/10/27 09:35:00;;;;;;;8.20;2.03;;;;;;;7.68;68.61;101558.72;4972511;28;20038;-56
2022/10/27 09:37:28;;;;;;;3.67;1.70;;;;;;;7.67;68.90;101565.03;4970882;28;20039;-56
2022/10/27 09:39:56;;;;;;;6.78;1.88;;;;;;;7.73;69.03;101560.88;4969857;28;20069;-56
2022/10/27 09:42:22;;;;;;;8.63;2.72;;;;;;;7.77;69.08;101562.16;4969396;28;20038;-56
2022/10/27 09:44:57;;;;;;;5.68;1.90;;;;;;;7.92;68.73;101562.31;4972140;28;20022;-57
2022/10/27 09:47:27;;;;;;;10.77;2.65;;;;;;;7.94;69.12;101557.66;4968265;28;20031;-56
2022/10/27 09:49:53;;;;;;;9.57;2.50;;;;;;;7.85;69.57;101564.00;4971950;28;20030;-56
2022/10/27 09:52:30;;;;;;;7.65;2.28;;;;;;;7.86;69.50;101561.16;4972288;28;20451;-56
2022/10/27 09:54:57;;;;;;;6.90;2.15;;;;;;;7.89;69.40;101550.16;4972392;28;20034;-56
2022/10/27 09:57:36;;;;;;;6.93;2.05;;;;;;;7.97;69.15;101551.97;4960916;28;20488;-55
2022/10/27 10:00:15;;;;;;;6.22;2.13;;;;;;;7.91;69.39;101553.47;4955329;28;20111;-56
2022/10/27 10:02:56;;;;;;;6.82;2.10;;;;;;;7.86;69.76;101549.66;4952699;28;20039;-56
2022/10/27 10:05:25;;;;;;;9.38;2.78;;;;;;;7.70;70.55;101547.03;4957356;28;20031;-56
2022/10/27 10:07:53;;;;;;;5.43;2.22;;;;;;;7.61;70.81;101548.91;4969066;28;20035;-55
2022/10/27 10:10:29;;;;;;;8.45;3.15;;;;;;;7.50;71.54;101555.41;4956816;28;20043;-56
2022/10/27 10:13:00;;;;;;;;;;;;;;;7.53;71.85;101557.72;4953326;28;20447;-57
2022/10/27 10:15:27;;;;;;;7.90;2.38;;;;;;;7.50;72.33;101559.91;4959430;28;19928;-56
2022/10/27 10:18:01;;;;;;;6.60;2.47;;;;;;;7.58;72.01;101562.56;4972078;28;20452;-55
2022/10/27 10:20:31;;;;;;;9.50;2.25;;;;;;;7.58;72.16;101568.72;4971786;28;20039;-56
2022/10/27 10:22:57;;;;;;;12.20;2.20;;;;;;;7.70;71.70;101563.03;4971918;28;20598;-56
2022/10/27 10:25:29;;;;;;;6.55;2.30;;;;;;;7.61;72.22;101576.38;4969540;28;20078;-56
2022/10/27 10:27:58;;;;;;;10.80;2.40;;;;;;;7.57;72.67;101560.91;4964208;28;20046;-56
2022/10/27 10:30:26;;;;;;;8.57;2.53;;;;;;;7.79;71.93;101559.34;4962039;28;20022;-56
2022/10/27 10:32:56;;;;;;;8.50;2.30;;;;;;;7.72;72.12;101567.22;4971739;28;20490;-56
2022/10/27 10:35:49;;;;;;;7.38;2.85;;;;;;;7.52;73.12;101572.06;4971517;28;20031;-56
2022/10/27 10:38:36;;;;;;;8.07;2.50;;;;;;;7.56;73.09;101562.72;4952520;29;20027;-56
2022/10/27 10:41:09;;;;;;;10.30;2.55;;;;;;;7.62;72.95;101567.38;4965480;28;20105;-56
2022/10/27 10:43:35;;;;;;;7.63;2.60;;;;;;;7.55;73.20;101558.41;4969575;28;20040;-57
2022/10/27 10:46:02;;;;;;;10.82;3.00;;;;;;;7.61;72.71;101560.41;4969766;28;20027;-56
2022/10/27 10:49:01;;;;;;;11.18;3.00;;;;;;;7.81;72.08;101550.19;4970579;28;20387;-56
2022/10/27 10:51:34;;;;;;;5.45;2.58;;;;;;;7.97;71.68;101554.63;4929975;28;20050;-56
2022/10/27 10:54:18;;;;;;;11.63;2.60;;;;;;;8.08;71.25;101548.09;4973345;28;20082;-56
2022/10/27 10:56:52;;;;;;;17.88;3.33;;;;;;;7.90;71.90;101538.50;4973239;28;20034;-56
2022/10/27 10:59:22;;;;;;;11.90;2.67;;;;;;;7.91;72.26;101544.66;4974164;28;20484;-55
2022/10/27 11:02:13;;;;;;;7.22;2.38;;;;;;;8.09;71.55;101539.09;4972939;28;20122;-56
2022/10/27 11:04:46;;;;;;;12.02;2.67;;;;;;;7.97;72.04;101540.47;4970732;28;20055;-56
2022/10/27 11:07:29;;;;;;;9.45;2.88;;;;;;;7.66;73.49;101535.88;4975047;28;20061;-57
2022/10/27 11:12:40;;;;;;;9.35;2.78;;;;;;;8.06;71.93;101534.94;5508803;23;20515;-47
2022/10/27 11:15:12;;;;;;;;;;;;;;;7.97;72.54;101541.31;4929750;29;20068;-48
2022/10/27 11:17:39;;;;;;;11.13;3.22;;;;;;;7.97;72.13;101541.31;4944060;28;19925;-46
2022/10/27 11:20:12;;;;;;;6.93;3.00;;;;;;;8.11;71.90;101545.94;4935636;29;20032;-45
2022/10/27 11:22:39;;;;;;;13.43;3.15;;;;;;;8.17;72.01;101544.41;4956092;29;20414;-46
2022/10/27 11:25:15;;;;;;;9.20;3.05;;;;;;;8.12;72.51;101541.44;4953517;29;20031;-46
2022/10/27 11:28:15;;;;;;;11.55;2.90;;;;;;;8.21;71.86;101535.88;4954884;29;20042;-47
2022/10/27 11:30:57;;;;;;;11.50;3.13;;;;;;;8.25;71.69;101538.19;4913259;29;20043;-46
2022/10/27 11:33:39;;;;;;;12.02;2.22;;;;;;;8.20;72.00;101531.53;4924521;29;20023;-46
2022/10/27 11:36:38;;;;;;;6.25;2.40;;;;;;;8.25;71.96;101523.03;4953816;29;20098;-43
2022/10/27 11:39:12;;;;;;;7.60;2.80;;;;;;;8.33;71.46;101522.16;4947522;29;20042;-45
2022/10/27 11:41:53;;;;;;;11.25;2.40;;;;;;;8.04;72.64;101522.78;4952897;28;20312;-44
2022/10/27 11:44:41;;;;;;;7.65;2.65;;;;;;;7.80;73.56;101526.38;4949119;29;20042;-44
2022/10/27 11:47:20;;;;;;;8.68;2.63;;;;;;;8.17;72.10;101518.56;4920491;29;20245;-45